Time;durP1;ratioP1;P1;durP2;ratioP2;P2;SDS_P1;SDS_P2;PMS_P1;PMS_P2;Temp;Humidity;BMP_temperature;BMP_pressure;BME280_temperature;BME280_humidity;BME280_pressure;Samples;Min_cycle;Max_cycle;Signal;HPM_P1;HPM_P2
2023/04/22 00:00:05;;;;;;;0.50;0.50;;;;;;;11.77;61.22;96239.19;29395;240;63009;-56
2023/04/22 00:00:37;;;;;;;0.40;0.40;;;;;;;11.76;61.31;96238.34;29395;252;63010;-56
2023/04/22 00:01:08;;;;;;;0.50;0.50;;;;;;;11.77;61.50;96236.47;29395;199;63009;-55
2023/04/22 00:01:39;;;;;;;0.50;0.50;;;;;;;11.76;61.08;96241.06;29395;277;63004;-55
2023/04/22 00:02:13;;;;;;;0.50;0.50;;;;;;;11.75;61.32;96234.84;29396;211;63009;-56
2023/04/22 00:02:44;;;;;;;0.50;0.50;;;;;;;11.74;61.55;96229.72;29396;235;63004;-56
2023/04/22 00:03:15;;;;;;;0.50;0.50;;;;;;;11.74;61.44;96240.59;29396;254;63009;-55
2023/04/22 00:03:46;;;;;;;0.50;0.50;;;;;;;11.73;61.51;96239.00;29396;233;63004;-55
2023/04/22 00:04:19;;;;;;;0.50;0.50;;;;;;;11.72;61.33;96237.38;29396;200;63008;-59
2023/04/22 00:04:51;;;;;;;0.50;0.50;;;;;;;11.71;61.77;96239.31;29395;236;64009;-56
2023/04/22 00:05:23;;;;;;;0.50;0.50;;;;;;;11.71;61.87;96241.22;29395;215;64014;-56
2023/04/22 00:05:55;;;;;;;0.50;0.50;;;;;;;11.70;62.06;96234.19;29396;225;63005;-56
2023/04/22 00:06:26;;;;;;;0.50;0.50;;;;;;;11.70;62.05;96240.41;29395;263;63009;-55
2023/04/22 00:07:01;;;;;;;0.50;0.50;;;;;;;11.71;62.54;96235.78;29396;202;63005;-57
2023/04/22 00:07:32;;;;;;;0.50;0.50;;;;;;;11.71;62.53;96233.88;29396;211;63009;-55
2023/04/22 00:08:03;;;;;;;0.50;0.50;;;;;;;11.72;62.62;96242.81;29396;248;63005;-57
2023/04/22 00:08:34;;;;;;;0.50;0.50;;;;;;;11.72;62.62;96242.81;29396;199;63009;-56
2023/04/22 00:09:06;;;;;;;0.50;0.50;;;;;;;11.72;62.49;96242.81;29396;217;63004;-55
2023/04/22 00:11:13;;;;;;;0.47;0.47;;;;;;;11.71;62.94;96246.66;29396;196;63008;-55
2023/04/22 00:11:44;;;;;;;0.50;0.50;;;;;;;11.70;63.06;96245.06;29395;221;64013;-56
2023/04/22 00:12:15;;;;;;;0.50;0.50;;;;;;;11.70;63.16;96243.13;29396;209;63005;-56
2023/04/22 00:12:46;;;;;;;0.50;0.50;;;;;;;11.71;63.20;96243.94;29396;247;63009;-57
2023/04/22 00:13:18;;;;;;;0.50;0.50;;;;;;;11.71;63.52;96242.03;29396;293;63005;-56
2023/04/22 00:13:49;;;;;;;0.50;0.50;;;;;;;11.71;63.53;96239.31;29396;231;63009;-56
2023/04/22 00:14:20;;;;;;;0.50;0.50;;;;;;;11.72;63.75;96237.38;29396;313;63005;-56
2023/04/22 00:14:52;;;;;;;0.50;0.50;;;;;;;11.72;63.82;96242.81;29396;231;63009;-55
2023/04/22 00:15:24;;;;;;;0.50;0.50;;;;;;;11.71;63.61;96242.03;29396;277;63005;-56
2023/04/22 00:15:55;;;;;;;0.50;0.50;;;;;;;11.72;63.99;96242.81;29396;229;63009;-55
2023/04/22 00:16:26;;;;;;;0.50;0.50;;;;;;;11.72;64.04;96245.53;29396;209;63016;-56
2023/04/22 00:16:58;;;;;;;0.50;0.50;;;;;;;11.72;63.99;96246.34;29395;206;64031;-57
2023/04/22 00:17:32;;;;;;;0.50;0.50;;;;;;;11.72;64.10;96245.53;29396;202;63004;-56
2023/04/22 00:18:06;;;;;;;0.50;0.50;;;;;;;11.70;63.76;96243.13;29396;233;63008;-55
2023/04/22 00:18:42;;;;;;;0.50;0.50;;;;;;;11.70;64.05;96234.19;29396;241;63004;-56
2023/04/22 00:19:13;;;;;;;0.40;0.40;;;;;;;11.70;64.24;96234.97;29396;197;63008;-55
2023/04/22 00:19:44;;;;;;;0.50;0.50;;;;;;;11.69;64.31;96238.00;29396;205;63005;-56
2023/04/22 00:20:20;;;;;;;0.50;0.50;;;;;;;11.69;64.08;96240.72;29396;202;63009;-55
2023/04/22 00:20:51;;;;;;;0.50;0.50;;;;;;;11.69;64.63;96238.00;29396;206;63005;-55
2023/04/22 00:21:22;;;;;;;0.50;0.50;;;;;;;11.70;64.63;96245.06;29396;213;63009;-56
2023/04/22 00:21:53;;;;;;;0.50;0.50;;;;;;;11.69;64.70;96241.53;29396;232;63005;-55
2023/04/22 00:22:25;;;;;;;0.50;0.50;;;;;;;11.70;64.76;96237.69;29395;202;64013;-56
2023/04/22 00:22:56;;;;;;;0.50;0.50;;;;;;;11.72;65.05;96251.78;29396;250;63010;-55
2023/04/22 00:23:27;;;;;;;0.50;0.50;;;;;;;11.72;64.94;96243.63;29396;197;63009;-56
2023/04/22 00:23:58;;;;;;;0.50;0.50;;;;;;;11.75;65.49;96242.19;29396;221;63010;-56
2023/04/22 00:24:30;;;;;;;0.50;0.50;;;;;;;11.76;65.17;96246.50;29396;209;63018;-56
2023/04/22 00:25:01;;;;;;;0.50;0.50;;;;;;;11.76;65.45;96238.34;29396;202;63007;-57
2023/04/22 00:25:33;;;;;;;0.50;0.50;;;;;;;11.75;65.28;96243.00;29396;249;63008;-56
2023/04/22 00:26:04;;;;;;;0.50;0.50;;;;;;;11.76;65.31;96241.06;29396;236;63004;-56
2023/04/22 00:26:36;;;;;;;0.50;0.50;;;;;;;11.75;65.35;96247.62;29396;198;63009;-57
2023/04/22 00:27:08;;;;;;;0.50;0.50;;;;;;;11.76;65.59;96238.34;29396;211;63005;-56
2023/04/22 00:27:40;;;;;;;0.50;0.50;;;;;;;11.78;65.51;96247.03;29395;197;64014;-55
2023/04/22 00:28:11;;;;;;;0.43;0.43;;;;;;;11.77;65.52;96245.44;29396;203;63010;-57
2023/04/22 00:28:42;;;;;;;0.50;0.50;;;;;;;11.79;65.73;96248.59;29396;229;63009;-57
2023/04/22 00:29:13;;;;;;;0.50;0.50;;;;;;;11.80;65.64;96243.97;29396;327;63005;-56
2023/04/22 00:29:44;;;;;;;0.50;0.50;;;;;;;11.79;65.75;96243.16;29396;200;63009;-55
2023/04/22 00:30:16;;;;;;;0.50;0.50;;;;;;;11.78;65.81;96238.88;29396;205;63005;-56
2023/04/22 00:30:47;;;;;;;0.50;0.50;;;;;;;11.78;65.92;96244.31;29396;234;63009;-57
2023/04/22 00:31:18;;;;;;;0.50;0.50;;;;;;;11.76;66.15;96243.78;29396;199;63004;-56
2023/04/22 00:31:50;;;;;;;0.50;0.50;;;;;;;11.78;66.85;96240.78;29396;206;63009;-56
2023/04/22 00:32:21;;;;;;;0.50;0.50;;;;;;;11.76;66.51;96246.50;29396;356;63004;-57
2023/04/22 00:32:52;;;;;;;0.50;0.50;;;;;;;11.78;67.06;96255.19;29395;231;64013;-57
2023/04/22 00:33:24;;;;;;;0.45;0.45;;;;;;;11.77;67.28;96248.16;29396;230;63004;-57
2023/04/22 00:33:55;;;;;;;0.50;0.50;;;;;;;11.75;66.69;96244.91;29396;199;63009;-54
2023/04/22 00:34:27;;;;;;;0.50;0.50;;;;;;;11.74;67.02;96248.75;29396;205;63005;-59
2023/04/22 00:34:58;;;;;;;0.50;0.50;;;;;;;11.73;66.99;96249.84;29396;247;63009;-57
2023/04/22 00:35:29;;;;;;;0.50;0.50;;;;;;;11.71;66.86;96246.66;29396;208;63005;-60
2023/04/22 00:36:00;;;;;;;0.50;0.50;;;;;;;11.75;68.02;96253.06;29396;215;63009;-59
2023/04/22 00:36:34;;;;;;;0.50;0.50;;;;;;;11.77;68.38;96256.31;29396;204;63005;-56
2023/04/22 00:37:05;;;;;;;0.50;0.50;;;;;;;11.76;67.86;96246.50;29396;283;63009;-56
2023/04/22 00:37:36;;;;;;;0.50;0.50;;;;;;;11.76;68.43;96260.09;29396;224;63005;-55
2023/04/22 00:38:08;;;;;;;0.50;0.50;;;;;;;11.73;67.78;96247.94;29395;240;64013;-56
2023/04/22 00:38:40;;;;;;;0.47;0.47;;;;;;;11.72;68.19;96248.25;29396;268;63007;-56
2023/04/22 00:39:11;;;;;;;0.50;0.50;;;;;;;11.72;68.31;96250.97;29396;210;63009;-56
2023/04/22 00:39:43;;;;;;;0.57;0.57;;;;;;;11.73;68.40;96247.12;29396;273;63004;-56
2023/04/22 00:40:14;;;;;;;0.40;0.40;;;;;;;11.71;68.38;96247.44;29396;265;63009;-56
2023/04/22 00:40:45;;;;;;;0.50;0.50;;;;;;;11.71;68.56;96241.22;29396;210;63004;-56
2023/04/22 00:41:17;;;;;;;0.50;0.50;;;;;;;11.71;68.52;96235.78;29396;222;63008;-56
2023/04/22 00:41:50;;;;;;;0.50;0.50;;;;;;;11.71;68.91;96243.94;29396;221;63005;-56
2023/04/22 00:42:21;;;;;;;0.50;0.50;;;;;;;11.70;68.77;96245.06;29396;243;63009;-57
2023/04/22 00:42:54;;;;;;;0.50;0.50;;;;;;;11.69;68.65;96238.81;29396;205;63007;-57
2023/04/22 00:43:27;;;;;;;0.50;0.50;;;;;;;11.69;68.74;96233.38;29395;251;64013;-56
2023/04/22 00:43:59;;;;;;;0.50;0.50;;;;;;;11.69;68.91;96232.56;29396;199;63005;-56
2023/04/22 00:44:32;;;;;;;0.50;0.50;;;;;;;11.68;68.88;96236.41;29396;210;63009;-56
2023/04/22 00:45:09;;;;;;;0.50;0.50;;;;;;;11.67;69.29;96240.25;29397;249;63005;-55
2023/04/22 00:45:42;;;;;;;0.50;0.50;;;;;;;11.67;69.26;96237.53;29397;259;63010;-55
2023/04/22 00:46:15;;;;;;;0.40;0.40;;;;;;;11.66;69.15;96238.63;29397;223;63009;-55
2023/04/22 00:46:47;;;;;;;0.50;0.50;;;;;;;11.65;69.25;96237.03;29397;198;63009;-55
2023/04/22 00:47:20;;;;;;;0.50;0.50;;;;;;;11.64;69.90;96240.88;29397;219;63013;-56
2023/04/22 00:47:52;;;;;;;0.50;0.50;;;;;;;11.64;69.42;96238.16;29397;198;63009;-55
2023/04/22 00:48:25;;;;;;;0.50;0.50;;;;;;;11.61;69.50;96238.78;29397;251;63004;-56
2023/04/22 00:48:56;;;;;;;0.50;0.50;;;;;;;11.61;69.61;96236.06;29396;249;64014;-57
2023/04/22 00:49:28;;;;;;;0.50;0.50;;;;;;;11.63;70.24;96239.28;29397;206;63005;-56
2023/04/22 00:50:00;;;;;;;0.50;0.50;;;;;;;11.63;70.20;96234.63;29397;239;63027;-57
2023/04/22 00:50:31;;;;;;;0.50;0.50;;;;;;;11.65;70.22;96242.47;29397;247;63005;-58
2023/04/22 00:51:04;;;;;;;0.50;0.50;;;;;;;11.66;70.07;96235.94;29397;246;63009;-56
2023/04/22 00:51:35;;;;;;;0.50;0.50;;;;;;;11.67;69.94;96234.81;29397;240;63005;-56
2023/04/22 00:52:06;;;;;;;0.50;0.50;;;;;;;11.68;70.13;96236.41;29397;293;63005;-56
2023/04/22 00:52:37;;;;;;;0.50;0.50;;;;;;;11.69;70.66;96238.00;29397;254;63005;-56
2023/04/22 00:53:09;;;;;;;0.50;0.50;;;;;;;11.74;70.60;96237.88;29397;204;63009;-56
2023/04/22 00:53:40;;;;;;;0.50;0.50;;;;;;;11.73;70.30;96242.50;29397;303;63004;-57
2023/04/22 00:54:11;;;;;;;0.50;0.50;;;;;;;11.73;70.31;96239.78;29396;211;64013;-56
2023/04/22 00:54:45;;;;;;;0.50;0.50;;;;;;;11.73;70.45;96234.34;29397;223;63004;-56
2023/04/22 00:55:17;;;;;;;0.50;0.50;;;;;;;11.74;70.26;96243.31;29397;198;63013;-56
2023/04/22 00:55:49;;;;;;;0.50;0.50;;;;;;;11.77;70.41;96237.28;29397;382;63004;-59
2023/04/22 00:56:25;;;;;;;0.50;0.50;;;;;;;11.78;70.24;96238.88;29397;215;63016;-58
2023/04/22 00:56:57;;;;;;;0.50;0.50;;;;;;;11.78;70.36;96240.78;29397;221;63005;-56
2023/04/22 00:57:30;;;;;;;0.50;0.50;;;;;;;11.77;70.35;96231.84;29397;219;63016;-55
2023/04/22 00:58:03;;;;;;;0.50;0.50;;;;;;;11.74;70.16;96235.16;29397;241;63005;-57
2023/04/22 00:58:34;;;;;;;0.50;0.50;;;;;;;11.72;70.15;96237.38;29396;204;63009;-56
2023/04/22 00:59:07;;;;;;;0.50;0.50;;;;;;;11.72;70.18;96242.81;29396;223;63005;-57
2023/04/22 00:59:39;;;;;;;0.77;0.77;;;;;;;11.70;70.30;96239.62;29395;255;64013;-56
2023/04/22 01:00:11;;;;;;;0.50;0.50;;;;;;;11.69;70.54;96243.44;29397;215;63005;-56
2023/04/22 01:00:42;;;;;;;0.50;0.50;;;;;;;11.69;70.20;96232.56;29396;303;63009;-57
2023/04/22 01:01:14;;;;;;;0.50;0.50;;;;;;;11.69;70.58;96238.81;29396;223;63007;-57
2023/04/22 01:01:46;;;;;;;0.50;0.50;;;;;;;11.69;70.46;96233.38;29396;221;63009;-56
2023/04/22 01:02:17;;;;;;;0.50;0.50;;;;;;;11.69;70.52;96233.38;29396;214;63004;-56
2023/04/22 01:02:49;;;;;;;0.50;0.50;;;;;;;11.71;70.77;96236.59;29396;240;63009;-58
2023/04/22 01:03:21;;;;;;;0.50;0.50;;;;;;;11.71;70.95;96233.06;29396;271;63004;-56
2023/04/22 01:03:52;;;;;;;0.40;0.40;;;;;;;11.70;70.55;96236.91;29396;240;63025;-55
2023/04/22 01:04:28;;;;;;;0.50;0.50;;;;;;;11.71;70.94;96238.50;29396;204;64009;-56
2023/04/22 01:05:00;;;;;;;0.50;0.50;;;;;;;11.71;71.10;96230.34;29396;225;63009;-56
2023/04/22 01:05:32;;;;;;;0.50;0.50;;;;;;;11.70;71.20;96236.91;29396;249;63005;-57
2023/04/22 01:06:04;;;;;;;0.50;0.50;;;;;;;11.72;70.75;96234.66;29396;199;63005;-56
2023/04/22 01:06:37;;;;;;;0.50;0.50;;;;;;;11.72;70.92;96235.47;29396;217;63005;-56
2023/04/22 01:07:08;;;;;;;0.50;0.50;;;;;;;11.73;70.77;96233.56;29396;227;63009;-55
2023/04/22 01:07:39;;;;;;;0.50;0.50;;;;;;;11.73;70.67;96231.62;29396;208;63005;-57
2023/04/22 01:08:11;;;;;;;0.50;0.50;;;;;;;11.71;70.79;96238.50;29396;239;63009;-56
2023/04/22 01:08:43;;;;;;;0.50;0.50;;;;;;;11.70;70.70;96234.19;29396;208;63004;-55
2023/04/22 01:09:15;;;;;;;0.65;0.65;;;;;;;11.71;70.85;96227.63;29396;205;63009;-57
2023/04/22 01:09:47;;;;;;;0.50;0.50;;;;;;;11.72;70.79;96229.22;29395;225;64009;-56
2023/04/22 01:10:19;;;;;;;0.50;0.50;;;;;;;11.71;70.60;96233.06;29396;249;63013;-55
2023/04/22 01:10:50;;;;;;;0.50;0.50;;;;;;;11.70;70.68;96234.19;29396;260;63016;-58
2023/04/22 01:11:22;;;;;;;0.50;0.50;;;;;;;11.73;71.00;96233.56;29396;232;63008;-56
2023/04/22 01:11:53;;;;;;;0.50;0.50;;;;;;;11.72;70.92;96230.03;29396;206;63005;-56
2023/04/22 01:12:31;;;;;;;0.50;0.50;;;;;;;11.71;70.79;96231.16;29396;238;63009;-57
2023/04/22 01:13:03;;;;;;;0.50;0.50;;;;;;;11.73;71.02;96230.84;29396;218;63005;-57
2023/04/22 01:13:37;;;;;;;0.40;0.40;;;;;;;11.70;70.68;96232.25;29396;232;63011;-55
2023/04/22 01:14:08;;;;;;;0.50;0.50;;;;;;;11.69;70.64;96232.56;29396;214;63005;-57
2023/04/22 01:14:40;;;;;;;0.50;0.50;;;;;;;11.67;70.57;96230.19;29396;227;63009;-56
2023/04/22 01:15:12;;;;;;;0.60;0.60;;;;;;;11.68;70.70;96230.97;29395;224;64009;-56
2023/04/22 01:15:44;;;;;;;0.50;0.50;;;;;;;11.67;70.57;96229.38;29396;254;63009;-57
2023/04/22 01:16:16;;;;;;;0.50;0.50;;;;;;;11.67;70.57;96235.59;29396;258;63004;-55
2023/04/22 01:16:48;;;;;;;0.50;0.50;;;;;;;11.66;70.66;96230.50;29397;198;63009;-56
2023/04/22 01:17:20;;;;;;;0.50;0.50;;;;;;;11.66;70.68;96233.22;29396;265;63004;-56
2023/04/22 01:17:53;;;;;;;0.50;0.50;;;;;;;11.65;70.90;96229.69;29396;226;63009;-56
2023/04/22 01:18:26;;;;;;;0.50;0.50;;;;;;;11.65;70.93;96234.31;29396;220;63004;-57
2023/04/22 01:18:57;;;;;;;0.50;0.50;;;;;;;11.64;70.88;96235.44;29396;210;63013;-58
2023/04/22 01:19:28;;;;;;;0.50;0.50;;;;;;;11.63;70.87;96231.13;29396;217;63005;-58
2023/04/22 01:20:02;;;;;;;0.50;0.50;;;;;;;11.61;70.76;96230.63;29396;204;63009;-57
2023/04/22 01:20:34;;;;;;;0.50;0.50;;;;;;;11.59;71.00;96227.44;29395;249;64009;-55
2023/04/22 01:21:06;;;;;;;0.40;0.40;;;;;;;11.58;71.18;96231.25;29396;203;63009;-56
2023/04/22 01:21:39;;;;;;;0.50;0.50;;;;;;;11.57;71.11;96235.09;29396;227;63005;-57
2023/04/22 01:22:12;;;;;;;0.50;0.50;;;;;;;11.55;71.41;96232.69;29396;216;63009;-57
2023/04/22 01:22:45;;;;;;;0.50;0.50;;;;;;;11.55;71.55;96242.75;29396;317;63015;-57
2023/04/22 01:23:20;;;;;;;0.50;0.50;;;;;;;11.54;71.40;96235.72;29396;210;63009;-56
2023/04/22 01:23:52;;;;;;;0.50;0.50;;;;;;;11.53;71.46;96234.91;29396;232;63004;-56
2023/04/22 01:24:24;;;;;;;0.50;0.50;;;;;;;11.51;71.38;96237.16;29396;205;63009;-56
2023/04/22 01:24:55;;;;;;;0.50;0.50;;;;;;;11.50;71.62;96237.47;29396;226;63004;-57
2023/04/22 01:25:27;;;;;;;0.50;0.50;;;;;;;11.50;71.48;96234.75;29396;206;63008;-56
2023/04/22 01:26:02;;;;;;;0.50;0.50;;;;;;;11.48;71.40;96231.53;29395;273;64008;-56
2023/04/22 01:26:35;;;;;;;0.50;0.50;;;;;;;11.48;71.59;96231.53;29396;197;63008;-56
2023/04/22 01:27:07;;;;;;;0.50;0.50;;;;;;;11.49;72.09;96227.69;29396;252;63005;-59
2023/04/22 01:27:39;;;;;;;0.50;0.50;;;;;;;11.49;71.92;96235.84;29396;252;63009;-56
2023/04/22 01:28:11;;;;;;;0.50;0.50;;;;;;;11.49;71.92;96233.13;29396;197;63005;-56
2023/04/22 01:28:43;;;;;;;0.50;0.50;;;;;;;11.47;71.84;96230.72;29396;215;63009;-56
2023/04/22 01:29:15;;;;;;;0.50;0.50;;;;;;;11.47;71.89;96244.31;29396;199;63005;-57
2023/04/22 01:29:47;;;;;;;0.50;0.50;;;;;;;11.46;71.86;96239.19;29397;215;63009;-58
2023/04/22 01:30:19;;;;;;;0.50;0.50;;;;;;;11.45;71.84;96237.59;29396;202;63016;-56
2023/04/22 01:30:51;;;;;;;0.50;0.50;;;;;;;11.43;71.87;96236.00;29396;255;63009;-56
2023/04/22 01:31:23;;;;;;;4.85;4.43;;;;;;;11.42;71.82;96233.63;29395;247;64009;-56
2023/04/22 01:31:54;;;;;;;0.50;0.50;;;;;;;11.41;71.92;96238.25;29396;206;63009;-58
2023/04/22 01:32:29;;;;;;;0.50;0.50;;;;;;;11.41;72.04;96238.25;29396;247;63004;-56
2023/04/22 01:33:01;;;;;;;0.50;0.50;;;;;;;11.40;71.84;96236.66;29396;202;63008;-56
2023/04/22 01:33:33;;;;;;;0.50;0.50;;;;;;;11.40;72.12;96242.09;29396;215;63005;-56
2023/04/22 01:34:06;;;;;;;0.50;0.50;;;;;;;11.39;72.02;96243.19;29396;247;63009;-56
2023/04/22 01:34:37;;;;;;;0.40;0.40;;;;;;;11.38;72.11;96236.16;29396;213;63005;-56
2023/04/22 01:35:10;;;;;;;0.50;0.50;;;;;;;11.38;72.27;96233.44;29396;239;63009;-56
2023/04/22 01:35:41;;;;;;;0.50;0.50;;;;;;;11.36;72.25;96238.38;29396;261;63005;-56
2023/04/22 01:36:16;;;;;;;0.50;0.50;;;;;;;11.38;72.39;96232.62;29395;244;64013;-56
2023/04/22 01:36:48;;;;;;;0.50;0.50;;;;;;;11.37;72.49;96237.28;29396;218;63005;-56
2023/04/22 01:37:23;;;;;;;0.50;0.50;;;;;;;11.38;72.57;96233.44;29396;216;63009;-56
2023/04/22 01:37:56;;;;;;;0.50;0.50;;;;;;;11.37;72.69;96237.28;29396;333;63004;-56
2023/04/22 01:38:28;;;;;;;0.40;0.40;;;;;;;11.39;72.45;96239.69;29396;231;63026;-57
2023/04/22 01:39:00;;;;;;;0.50;0.50;;;;;;;11.40;72.93;96236.66;29396;249;63004;-56
2023/04/22 01:39:31;;;;;;;0.50;0.50;;;;;;;11.41;72.62;96238.25;29396;249;63009;-57
2023/04/22 01:40:04;;;;;;;0.43;0.43;;;;;;;11.45;72.88;96232.97;29396;206;63004;-57
2023/04/22 01:40:36;;;;;;;0.50;0.50;;;;;;;11.48;72.79;96231.53;29396;199;63008;-56
2023/04/22 01:41:08;;;;;;;0.50;0.50;;;;;;;11.46;72.61;96236.47;29396;207;63005;-56
2023/04/22 01:41:40;;;;;;;0.47;0.47;;;;;;;11.45;72.25;96234.88;29395;245;64014;-56
2023/04/22 01:42:12;;;;;;;0.50;0.50;;;;;;;11.41;72.25;96230.09;29396;259;63005;-57
2023/04/22 01:42:44;;;;;;;0.50;0.50;;;;;;;11.41;72.16;96238.25;29396;237;63009;-56
2023/04/22 01:43:16;;;;;;;0.50;0.50;;;;;;;11.41;72.42;96232.81;29397;213;63008;-56
2023/04/22 01:43:47;;;;;;;0.50;0.50;;;;;;;11.40;72.26;96228.50;29396;215;63009;-56
2023/04/22 01:44:19;;;;;;;0.50;0.50;;;;;;;11.40;72.78;96236.66;29396;206;63005;-57
2023/04/22 01:44:50;;;;;;;0.50;0.50;;;;;;;11.40;72.63;96233.94;29396;421;63009;-56
2023/04/22 01:45:21;;;;;;;0.50;0.50;;;;;;;11.39;72.77;96229.59;29396;231;63004;-57
2023/04/22 01:45:53;;;;;;;0.50;0.50;;;;;;;11.38;72.61;96228.00;29396;199;63009;-56
2023/04/22 01:46:24;;;;;;;0.50;0.50;;;;;;;11.37;72.70;96237.28;29396;204;63004;-56
2023/04/22 01:46:57;;;;;;;0.50;0.50;;;;;;;11.37;72.81;96237.28;29395;197;64013;-55
2023/04/22 01:47:38;;;;;;;0.50;0.50;;;;;;;11.36;72.78;96243.00;29396;238;63004;-57
2023/04/22 01:48:10;;;;;;;0.50;0.50;;;;;;;11.34;72.68;96237.91;29419;219;63008;-56
2023/04/22 01:48:41;;;;;;;0.50;0.50;;;;;;;11.34;72.86;96243.31;29397;206;63005;-57
2023/04/22 01:49:12;;;;;;;0.50;0.50;;;;;;;11.34;72.68;96240.62;29397;270;63019;-56
2023/04/22 01:49:44;;;;;;;0.50;0.50;;;;;;;11.33;72.99;96236.28;29397;236;63005;-57
2023/04/22 01:50:15;;;;;;;0.50;0.50;;;;;;;11.32;72.80;96240.12;29397;207;63009;-56
2023/04/22 01:50:47;;;;;;;0.50;0.50;;;;;;;11.31;72.68;96241.22;29397;247;63005;-57
2023/04/22 01:51:25;;;;;;;0.50;0.50;;;;;;;11.30;72.73;96236.91;29397;228;63021;-56
2023/04/22 01:51:57;;;;;;;0.50;0.50;;;;;;;11.29;72.68;96235.31;29394;238;64009;-56
2023/04/22 01:52:30;;;;;;;0.50;0.50;;;;;;;11.28;72.69;96239.12;29395;243;63009;-56
2023/04/22 01:53:01;;;;;;;0.50;0.50;;;;;;;11.29;72.73;96240.75;29395;215;63004;-56
2023/04/22 01:53:32;;;;;;;0.50;0.50;;;;;;;11.28;72.86;96232.91;29395;203;63009;-56
2023/04/22 01:54:04;;;;;;;0.50;0.50;;;;;;;11.30;72.93;96241.53;29395;197;63004;-56
2023/04/22 01:54:36;;;;;;;0.47;0.47;;;;;;;11.28;72.75;96233.72;29395;197;63009;-57
2023/04/22 01:55:08;;;;;;;0.50;0.50;;;;;;;11.28;72.69;96241.84;29395;196;63004;-56
2023/04/22 01:55:40;;;;;;;0.50;0.50;;;;;;;11.27;72.62;96229.41;29395;222;63008;-60
2023/04/22 01:56:11;;;;;;;0.50;0.50;;;;;;;11.28;72.68;96232.91;29395;203;63005;-56
2023/04/22 01:56:54;;;;;;;0.50;0.50;;;;;;;11.28;72.93;96238.34;29395;211;63009;-56
2023/04/22 01:57:25;;;;;;;0.50;0.50;;;;;;;11.28;72.90;96233.72;29393;376;64009;-56
2023/04/22 01:57:57;;;;;;;0.50;0.50;;;;;;;11.29;72.71;96234.50;29395;219;63009;-57
2023/04/22 01:58:29;;;;;;;0.50;0.50;;;;;;;11.29;72.87;96231.78;29393;198;64009;-56
2023/04/22 01:59:04;;;;;;;0.50;0.50;;;;;;;11.27;72.53;96232.09;29395;234;63009;-56
2023/04/22 01:59:35;;;;;;;0.50;0.50;;;;;;;11.27;72.48;96226.69;29395;245;63005;-56
2023/04/22 02:00:07;;;;;;;0.50;0.50;;;;;;;11.26;72.72;96235.94;29395;251;63009;-56
2023/04/22 02:00:39;;;;;;;0.50;0.50;;;;;;;11.25;72.91;96231.62;29395;228;63004;-57
2023/04/22 02:01:12;;;;;;;0.40;0.40;;;;;;;11.24;73.15;96235.44;29395;261;63009;-56
2023/04/22 02:01:43;;;;;;;0.50;0.50;;;;;;;11.22;72.91;96240.38;29394;364;63004;-56
2023/04/22 02:02:14;;;;;;;0.50;0.50;;;;;;;11.21;72.90;96238.78;29395;247;63009;-56
2023/04/22 02:02:46;;;;;;;0.50;0.50;;;;;;;11.19;72.95;96235.56;29395;231;63004;-56
2023/04/22 02:03:17;;;;;;;0.50;0.50;;;;;;;11.18;72.73;96238.59;29395;211;63024;-56
2023/04/22 02:03:48;;;;;;;0.50;0.50;;;;;;;11.17;72.89;96243.22;29393;217;64009;-56
2023/04/22 02:04:20;;;;;;;0.50;0.50;;;;;;;11.16;72.89;96238.91;29395;231;63009;-56
2023/04/22 02:04:51;;;;;;;0.47;0.47;;;;;;;11.16;73.20;96241.63;29395;248;63005;-56
2023/04/22 02:05:23;;;;;;;0.50;0.50;;;;;;;11.14;73.05;96249.28;29395;252;63009;-56
2023/04/22 02:05:54;;;;;;;0.50;0.50;;;;;;;11.14;73.09;96238.44;29395;202;63005;-57
2023/04/22 02:06:26;;;;;;;0.50;0.50;;;;;;;11.14;73.00;96253.91;29395;234;63009;-56
2023/04/22 02:06:57;;;;;;;0.50;0.50;;;;;;;11.13;73.46;96244.97;29395;202;63005;-56
2023/04/22 02:07:29;;;;;;;0.50;0.50;;;;;;;11.13;73.26;96247.69;29395;230;63009;-56
2023/04/22 02:08:00;;;;;;;0.50;0.50;;;;;;;11.13;73.15;96239.53;29395;225;63004;-56
2023/04/22 02:08:31;;;;;;;0.50;0.50;;;;;;;11.13;73.26;96236.81;29395;206;63009;-56
2023/04/22 02:09:03;;;;;;;0.50;0.50;;;;;;;11.13;73.19;96244.97;29393;212;64009;-56
2023/04/22 02:09:37;;;;;;;0.50;0.50;;;;;;;11.14;72.94;96241.13;29395;239;63009;-56
2023/04/22 02:10:10;;;;;;;0.50;0.50;;;;;;;11.13;72.86;96239.53;29395;222;63004;-55
2023/04/22 02:10:42;;;;;;;0.50;0.50;;;;;;;11.14;72.75;96238.44;29395;271;63018;-56
2023/04/22 02:11:13;;;;;;;0.40;0.40;;;;;;;11.15;72.83;96239.22;29395;219;63005;-56
2023/04/22 02:11:45;;;;;;;0.50;0.50;;;;;;;11.15;72.63;96240.03;29395;223;63016;-57
2023/04/22 02:12:16;;;;;;;0.50;0.50;;;;;;;11.14;72.48;96238.44;29395;248;63017;-56
2023/04/22 02:12:47;;;;;;;0.50;0.50;;;;;;;11.14;72.71;96241.13;29395;215;63009;-55
2023/04/22 02:13:19;;;;;;;0.47;0.47;;;;;;;11.13;72.63;96239.53;29395;198;63005;-56
2023/04/22 02:13:51;;;;;;;0.50;0.50;;;;;;;11.13;72.43;96234.09;29395;205;63009;-56
2023/04/22 02:14:22;;;;;;;0.50;0.50;;;;;;;11.14;72.31;96243.06;29393;243;64009;-58
2023/04/22 02:14:53;;;;;;;0.50;0.50;;;;;;;11.14;72.38;96246.56;29395;204;63009;-56
2023/04/22 02:15:27;;;;;;;0.50;0.50;;;;;;;11.13;72.53;96239.53;29395;210;63009;-56
2023/04/22 02:15:59;;;;;;;0.50;0.50;;;;;;;11.12;72.35;96246.06;29395;212;63009;-56
2023/04/22 02:16:31;;;;;;;0.47;0.47;;;;;;;11.12;72.17;96243.37;29393;212;64009;-56
2023/04/22 02:17:03;;;;;;;0.50;0.50;;;;;;;11.13;72.35;96244.97;29395;197;63009;-59
2023/04/22 02:17:35;;;;;;;0.50;0.50;;;;;;;11.13;72.29;96236.81;29395;252;63009;-56
2023/04/22 02:18:08;;;;;;;0.50;0.50;;;;;;;11.14;72.07;96241.13;29395;211;63008;-56
2023/04/22 02:18:40;;;;;;;0.45;0.45;;;;;;;11.14;72.47;96249.28;29395;256;63005;-56
2023/04/22 02:19:11;;;;;;;0.40;0.40;;;;;;;11.14;71.98;96249.28;29395;228;63005;-56
2023/04/22 02:19:43;;;;;;;0.50;0.50;;;;;;;11.14;72.26;96246.56;29395;208;63005;-56
2023/04/22 02:20:14;;;;;;;0.40;0.40;;;;;;;11.14;71.76;96249.28;29395;222;63009;-56
2023/04/22 02:20:45;;;;;;;0.50;0.50;;;;;;;11.15;71.75;96256.31;29395;222;63005;-57
2023/04/22 02:21:16;;;;;;;0.50;0.50;;;;;;;11.14;72.08;96243.84;29395;348;63009;-57
2023/04/22 02:21:48;;;;;;;0.50;0.50;;;;;;;11.16;71.76;96254.41;29393;203;64009;-56
2023/04/22 02:22:20;;;;;;;0.50;0.50;;;;;;;11.16;72.28;96252.50;29393;199;64013;-56
2023/04/22 02:22:51;;;;;;;0.50;0.50;;;;;;;11.16;72.20;96241.63;29393;247;64009;-57
2023/04/22 02:23:23;;;;;;;0.50;0.50;;;;;;;11.17;72.11;96243.22;29395;202;63009;-57
2023/04/22 02:23:56;;;;;;;0.50;0.50;;;;;;;11.15;72.22;96248.16;29395;232;63004;-57
2023/04/22 02:24:27;;;;;;;0.50;0.50;;;;;;;11.15;72.42;96256.31;29395;236;63009;-58
2023/04/22 02:24:58;;;;;;;0.50;0.50;;;;;;;11.15;72.83;96240.03;29395;221;63004;-58
2023/04/22 02:25:31;;;;;;;0.50;0.50;;;;;;;11.15;72.63;96256.31;29395;228;63008;-57
2023/04/22 02:26:02;;;;;;;0.50;0.50;;;;;;;11.14;72.87;96254.72;29395;221;63004;-56
2023/04/22 02:26:33;;;;;;;0.50;0.50;;;;;;;11.13;72.65;96253.09;29395;216;63009;-57
2023/04/22 02:27:05;;;;;;;0.50;0.50;;;;;;;11.14;73.08;96249.28;29395;219;63005;-56
2023/04/22 02:27:37;;;;;;;0.50;0.50;;;;;;;11.13;72.70;96253.09;29396;235;63009;-56
2023/04/22 02:28:08;;;;;;;0.50;0.50;;;;;;;11.12;72.69;96256.94;29394;209;64009;-57
2023/04/22 02:28:40;;;;;;;0.50;0.50;;;;;;;11.13;72.71;96257.75;29395;202;63009;-56
2023/04/22 02:29:12;;;;;;;0.50;0.50;;;;;;;11.11;73.10;96255.34;29395;231;63005;-57
2023/04/22 02:29:43;;;;;;;0.50;0.50;;;;;;;11.11;72.91;96255.34;29395;223;63009;-58
2023/04/22 02:30:15;;;;;;;0.50;0.50;;;;;;;11.13;72.95;96257.75;29395;198;63004;-56
2023/04/22 02:30:46;;;;;;;0.50;0.50;;;;;;;11.12;72.49;96256.94;29395;227;63009;-56
2023/04/22 02:31:18;;;;;;;0.50;0.50;;;;;;;11.14;72.54;96259.34;29395;225;63004;-56
2023/04/22 02:31:49;;;;;;;0.50;0.50;;;;;;;11.13;72.67;96263.97;29395;266;63009;-59
2023/04/22 02:32:20;;;;;;;0.50;0.50;;;;;;;11.12;72.33;96246.06;29395;398;63004;-57
2023/04/22 02:32:55;;;;;;;0.50;0.50;;;;;;;11.11;72.34;96249.91;29395;271;63009;-59
2023/04/22 02:33:26;;;;;;;0.50;0.50;;;;;;;11.11;71.97;96254.53;29394;271;64009;-56
2023/04/22 02:34:00;;;;;;;0.50;0.50;;;;;;;11.10;72.32;96259.16;29395;270;63009;-56